Terminal Aerodrome Forecast
Issued by NWS

Home | Current Version | Previous Version | Graphics & Text | Print | Product List | Glossary On
Versions: 1 2 3 4 5 6 7 8 9 10 11 12 13 14 15 16
000
FTUS43 KMPX 241720
TAFAXN
TAF
KAXN 241720Z 2418/2518 12014G21KT P6SM SCT010 OVC035
     FM250000 11013KT 4SM BR OVC012
     FM250500 09010KT 2SM BR OVC005
     FM251200 08010KT 4SM BR OVC010=

USA.gov is the U.S. government's official web portal to all federal, state and local government web resources and services.